sensor_id;sensor_type;location;lat;lon;timestamp;temperature;humidity
7970;DHT22;4030;52.362;9.206;2023-04-06T00:01:31;10.00;42.30
7970;DHT22;4030;52.362;9.206;2023-04-06T00:13:42;9.80;43.30
7970;DHT22;4030;52.362;9.206;2023-04-06T00:16:07;9.80;43.30
7970;DHT22;4030;52.362;9.206;2023-04-06T00:30:50;9.60;43.50
7970;DHT22;4030;52.362;9.206;2023-04-06T00:35:44;9.60;43.50
7970;DHT22;4030;52.362;9.206;2023-04-06T00:40:36;9.60;43.70
7970;DHT22;4030;52.362;9.206;2023-04-06T00:45:28;9.40;43.60
7970;DHT22;4030;52.362;9.206;2023-04-06T01:00:05;9.30;43.80
7970;DHT22;4030;52.362;9.206;2023-04-06T01:02:31;9.20;43.90
7970;DHT22;4030;52.362;9.206;2023-04-06T02:37:26;8.30;44.90
7970;DHT22;4030;52.362;9.206;2023-04-06T02:39:52;8.20;44.70
7970;DHT22;4030;52.362;9.206;2023-04-06T02:54:28;8.20;44.70
7970;DHT22;4030;52.362;9.206;2023-04-06T03:09:05;8.10;44.50
7970;DHT22;4030;52.362;9.206;2023-04-06T03:11:31;8.10;44.60
7970;DHT22;4030;52.362;9.206;2023-04-06T03:13:57;8.10;44.70
7970;DHT22;4030;52.362;9.206;2023-04-06T03:16:24;8.10;44.60
7970;DHT22;4030;52.362;9.206;2023-04-06T03:18:50;8.10;44.70
7970;DHT22;4030;52.362;9.206;2023-04-06T03:21:15;8.10;44.60
7970;DHT22;4030;52.362;9.206;2023-04-06T03:23:42;8.10;44.70
7970;DHT22;4030;52.362;9.206;2023-04-06T03:26:08;8.10;44.70
7970;DHT22;4030;52.362;9.206;2023-04-06T03:31:00;8.10;44.70
7970;DHT22;4030;52.362;9.206;2023-04-06T03:33:25;8.00;44.60
7970;DHT22;4030;52.362;9.206;2023-04-06T03:35:53;8.00;44.60
7970;DHT22;4030;52.362;9.206;2023-04-06T03:50:30;7.90;44.60
7970;DHT22;4030;52.362;9.206;2023-04-06T04:02:40;7.90;44.70
7970;DHT22;4030;52.362;9.206;2023-04-06T04:05:06;7.90;44.70
7970;DHT22;4030;52.362;9.206;2023-04-06T04:36:46;7.70;45.00
7970;DHT22;4030;52.362;9.206;2023-04-06T04:39:12;7.50;44.90
7970;DHT22;4030;52.362;9.206;2023-04-06T04:41:37;7.60;45.00
7970;DHT22;4030;52.362;9.206;2023-04-06T04:48:55;7.70;45.00
7970;DHT22;4030;52.362;9.206;2023-04-06T05:03:32;7.60;45.10
7970;DHT22;4030;52.362;9.206;2023-04-06T05:08:24;7.50;45.00
7970;DHT22;4030;52.362;9.206;2023-04-06T05:10:50;7.60;45.10
7970;DHT22;4030;52.362;9.206;2023-04-06T05:15:42;7.60;45.10
7970;DHT22;4030;52.362;9.206;2023-04-06T05:18:08;7.60;45.10
7970;DHT22;4030;52.362;9.206;2023-04-06T05:20:35;7.60;45.10
7970;DHT22;4030;52.362;9.206;2023-04-06T05:23:01;7.60;45.20
7970;DHT22;4030;52.362;9.206;2023-04-06T05:25:27;7.60;45.10
7970;DHT22;4030;52.362;9.206;2023-04-06T05:30:19;7.60;45.10
7970;DHT22;4030;52.362;9.206;2023-04-06T05:32:45;7.60;45.10
7970;DHT22;4030;52.362;9.206;2023-04-06T05:35:11;7.70;45.10
7970;DHT22;4030;52.362;9.206;2023-04-06T05:43:45;7.70;45.10
7970;DHT22;4030;52.362;9.206;2023-04-06T05:46:11;7.60;45.10
7970;DHT22;4030;52.362;9.206;2023-04-06T05:53:31;7.80;45.20
7970;DHT22;4030;52.362;9.206;2023-04-06T05:56:00;7.80;45.20
7970;DHT22;4030;52.362;9.206;2023-04-06T06:00:57;7.90;45.20
7970;DHT22;4030;52.362;9.206;2023-04-06T06:03:26;7.90;45.20
7970;DHT22;4030;52.362;9.206;2023-04-06T06:05:52;7.80;45.20
7970;DHT22;4030;52.362;9.206;2023-04-06T06:08:18;8.00;45.30
7970;DHT22;4030;52.362;9.206;2023-04-06T06:10:43;8.00;45.30
7970;DHT22;4030;52.362;9.206;2023-04-06T06:27:46;8.20;45.60
7970;DHT22;4030;52.362;9.206;2023-04-06T06:30:12;8.40;45.70
7970;DHT22;4030;52.362;9.206;2023-04-06T06:37:30;8.40;45.90
7970;DHT22;4030;52.362;9.206;2023-04-06T06:39:56;8.60;46.00
7970;DHT22;4030;52.362;9.206;2023-04-06T06:59:25;8.90;46.90
7970;DHT22;4030;52.362;9.206;2023-04-06T07:01:51;9.00;47.00
7970;DHT22;4030;52.362;9.206;2023-04-06T07:38:24;10.20;46.40
7970;DHT22;4030;52.362;9.206;2023-04-06T07:43:16;10.30;46.10
7970;DHT22;4030;52.362;9.206;2023-04-06T07:53:00;10.50;46.20
7970;DHT22;4030;52.362;9.206;2023-04-06T08:00:20;10.70;45.60
7970;DHT22;4030;52.362;9.206;2023-04-06T08:02:46;10.70;45.60
7970;DHT22;4030;52.362;9.206;2023-04-06T08:05:11;10.90;45.60
7970;DHT22;4030;52.362;9.206;2023-04-06T08:07:37;11.00;45.60
7970;DHT22;4030;52.362;9.206;2023-04-06T08:10:03;11.00;45.50
7970;DHT22;4030;52.362;9.206;2023-04-06T08:12:29;11.00;45.40
7970;DHT22;4030;52.362;9.206;2023-04-06T08:14:55;11.10;45.30
7970;DHT22;4030;52.362;9.206;2023-04-06T08:19:48;11.30;45.20
7970;DHT22;4030;52.362;9.206;2023-04-06T08:22:13;11.40;45.50
7970;DHT22;4030;52.362;9.206;2023-04-06T08:24:39;11.50;45.90
7970;DHT22;4030;52.362;9.206;2023-04-06T08:41:42;12.10;45.40
7970;DHT22;4030;52.362;9.206;2023-04-06T08:44:09;12.20;45.40
7970;DHT22;4030;52.362;9.206;2023-04-06T08:49:02;12.40;45.50
7970;DHT22;4030;52.362;9.206;2023-04-06T08:53:59;12.60;45.00
7970;DHT22;4030;52.362;9.206;2023-04-06T08:56:26;12.80;45.10
7970;DHT22;4030;52.362;9.206;2023-04-06T08:58:53;12.80;44.90
7970;DHT22;4030;52.362;9.206;2023-04-06T09:01:25;12.90;44.70
7970;DHT22;4030;52.362;9.206;2023-04-06T09:03:58;13.20;44.50
7970;DHT22;4030;52.362;9.206;2023-04-06T09:06:26;13.20;44.10
7970;DHT22;4030;52.362;9.206;2023-04-06T09:11:23;13.40;43.20
7970;DHT22;4030;52.362;9.206;2023-04-06T09:13:53;13.50;42.90
7970;DHT22;4030;52.362;9.206;2023-04-06T09:16:20;13.70;42.80
7970;DHT22;4030;52.362;9.206;2023-04-06T09:18:47;13.80;42.60
7970;DHT22;4030;52.362;9.206;2023-04-06T09:21:17;14.00;42.40
7970;DHT22;4030;52.362;9.206;2023-04-06T09:23:44;14.10;42.10
7970;DHT22;4030;52.362;9.206;2023-04-06T09:26:17;14.30;42.00
7970;DHT22;4030;52.362;9.206;2023-04-06T09:28:53;14.40;41.90
7970;DHT22;4030;52.362;9.206;2023-04-06T09:31:30;14.60;41.90
7970;DHT22;4030;52.362;9.206;2023-04-06T09:33:58;14.80;41.80
7970;DHT22;4030;52.362;9.206;2023-04-06T09:36:32;14.90;41.60
7970;DHT22;4030;52.362;9.206;2023-04-06T09:39:01;15.10;41.40
7970;DHT22;4030;52.362;9.206;2023-04-06T09:41:30;15.30;41.10
7970;DHT22;4030;52.362;9.206;2023-04-06T09:44:05;15.40;40.80
7970;DHT22;4030;52.362;9.206;2023-04-06T09:46:33;15.60;40.80
7970;DHT22;4030;52.362;9.206;2023-04-06T09:49:02;15.80;40.80
7970;DHT22;4030;52.362;9.206;2023-04-06T09:51:30;15.90;40.80
7970;DHT22;4030;52.362;9.206;2023-04-06T09:53:58;16.00;40.90
7970;DHT22;4030;52.362;9.206;2023-04-06T09:56:51;16.20;41.10
7970;DHT22;4030;52.362;9.206;2023-04-06T09:59:44;16.40;41.20
7970;DHT22;4030;52.362;9.206;2023-04-06T10:05:24;16.80;40.80
7970;DHT22;4030;52.362;9.206;2023-04-06T10:08:00;16.90;40.30
7970;DHT22;4030;52.362;9.206;2023-04-06T10:10:28;17.10;40.20
7970;DHT22;4030;52.362;9.206;2023-04-06T10:12:54;17.20;40.00
7970;DHT22;4030;52.362;9.206;2023-04-06T10:15:21;17.30;39.80
7970;DHT22;4030;52.362;9.206;2023-04-06T10:17:47;17.50;39.70
7970;DHT22;4030;52.362;9.206;2023-04-06T10:20:38;17.60;39.50
7970;DHT22;4030;52.362;9.206;2023-04-06T10:25:39;17.80;39.20
7970;DHT22;4030;52.362;9.206;2023-04-06T10:28:06;18.00;39.40
7970;DHT22;4030;52.362;9.206;2023-04-06T10:30:33;18.10;39.40
7970;DHT22;4030;52.362;9.206;2023-04-06T10:35:37;18.30;39.40
7970;DHT22;4030;52.362;9.206;2023-04-06T10:38:04;18.50;39.40
7970;DHT22;4030;52.362;9.206;2023-04-06T10:40:30;18.60;39.40
7970;DHT22;4030;52.362;9.206;2023-04-06T10:43:13;18.70;39.10
7970;DHT22;4030;52.362;9.206;2023-04-06T10:45:44;18.90;38.80
7970;DHT22;4030;52.362;9.206;2023-04-06T10:48:17;19.00;38.50
7970;DHT22;4030;52.362;9.206;2023-04-06T10:50:46;19.10;38.40
7970;DHT22;4030;52.362;9.206;2023-04-06T10:53:21;19.10;38.60
7970;DHT22;4030;52.362;9.206;2023-04-06T10:55:50;19.30;38.90
7970;DHT22;4030;52.362;9.206;2023-04-06T10:58:16;19.30;39.00
7970;DHT22;4030;52.362;9.206;2023-04-06T11:00:46;19.50;39.30
7970;DHT22;4030;52.362;9.206;2023-04-06T11:03:12;19.60;39.50
7970;DHT22;4030;52.362;9.206;2023-04-06T11:05:37;19.60;39.40
7970;DHT22;4030;52.362;9.206;2023-04-06T11:08:03;19.70;39.40
7970;DHT22;4030;52.362;9.206;2023-04-06T11:10:29;19.80;39.30
7970;DHT22;4030;52.362;9.206;2023-04-06T11:12:56;19.80;39.10
7970;DHT22;4030;52.362;9.206;2023-04-06T11:15:21;19.90;39.10
7970;DHT22;4030;52.362;9.206;2023-04-06T11:17:47;20.00;38.80
7970;DHT22;4030;52.362;9.206;2023-04-06T11:20:14;20.00;38.60
7970;DHT22;4030;52.362;9.206;2023-04-06T11:22:50;20.20;38.70
7970;DHT22;4030;52.362;9.206;2023-04-06T11:25:17;20.30;38.50
7970;DHT22;4030;52.362;9.206;2023-04-06T11:27:43;20.40;38.30
7970;DHT22;4030;52.362;9.206;2023-04-06T11:30:09;20.40;38.00
7970;DHT22;4030;52.362;9.206;2023-04-06T11:32:42;20.40;37.80
7970;DHT22;4030;52.362;9.206;2023-04-06T11:35:23;20.50;37.70
7970;DHT22;4030;52.362;9.206;2023-04-06T11:37:50;20.60;37.50
7970;DHT22;4030;52.362;9.206;2023-04-06T11:40:20;20.60;37.20
7970;DHT22;4030;52.362;9.206;2023-04-06T11:42:52;20.70;37.00
7970;DHT22;4030;52.362;9.206;2023-04-06T11:45:19;20.70;37.10
7970;DHT22;4030;52.362;9.206;2023-04-06T11:47:44;20.80;37.50
7970;DHT22;4030;52.362;9.206;2023-04-06T11:50:12;20.60;38.10
7970;DHT22;4030;52.362;9.206;2023-04-06T11:52:39;20.70;38.70
7970;DHT22;4030;52.362;9.206;2023-04-06T11:57:40;20.70;39.30
7970;DHT22;4030;52.362;9.206;2023-04-06T12:00:07;20.70;39.50
7970;DHT22;4030;52.362;9.206;2023-04-06T12:02:35;20.70;39.80
7970;DHT22;4030;52.362;9.206;2023-04-06T12:05:02;20.80;40.00
7970;DHT22;4030;52.362;9.206;2023-04-06T12:07:29;20.70;40.00
7970;DHT22;4030;52.362;9.206;2023-04-06T12:09:55;20.70;39.90
7970;DHT22;4030;52.362;9.206;2023-04-06T12:12:21;20.80;40.00
7970;DHT22;4030;52.362;9.206;2023-04-06T12:17:13;20.80;40.10
7970;DHT22;4030;52.362;9.206;2023-04-06T12:22:05;20.80;39.70
7970;DHT22;4030;52.362;9.206;2023-04-06T12:24:31;20.90;39.70
7970;DHT22;4030;52.362;9.206;2023-04-06T12:29:24;21.00;40.10
7970;DHT22;4030;52.362;9.206;2023-04-06T12:31:50;21.00;40.00
7970;DHT22;4030;52.362;9.206;2023-04-06T12:34:16;21.10;39.70
7970;DHT22;4030;52.362;9.206;2023-04-06T12:36:42;21.10;39.60
7970;DHT22;4030;52.362;9.206;2023-04-06T12:39:07;21.00;39.60
7970;DHT22;4030;52.362;9.206;2023-04-06T12:43:59;21.20;39.90
7970;DHT22;4030;52.362;9.206;2023-04-06T12:46:25;21.20;39.90
7970;DHT22;4030;52.362;9.206;2023-04-06T12:51:21;21.40;39.90
7970;DHT22;4030;52.362;9.206;2023-04-06T12:53:47;21.30;39.70
7970;DHT22;4030;52.362;9.206;2023-04-06T12:56:14;21.30;39.50
7970;DHT22;4030;52.362;9.206;2023-04-06T12:58:42;21.50;39.50
7970;DHT22;4030;52.362;9.206;2023-04-06T13:01:08;21.50;39.50
7970;DHT22;4030;52.362;9.206;2023-04-06T13:03:34;21.50;39.10
7970;DHT22;4030;52.362;9.206;2023-04-06T13:06:01;21.60;39.20
7970;DHT22;4030;52.362;9.206;2023-04-06T13:08:27;21.70;39.00
7970;DHT22;4030;52.362;9.206;2023-04-06T13:10:53;21.70;38.80
7970;DHT22;4030;52.362;9.206;2023-04-06T13:13:24;21.80;38.80
7970;DHT22;4030;52.362;9.206;2023-04-06T13:20:43;22.00;38.70
7970;DHT22;4030;52.362;9.206;2023-04-06T13:23:09;22.10;38.50
7970;DHT22;4030;52.362;9.206;2023-04-06T13:25:35;22.10;38.40
7970;DHT22;4030;52.362;9.206;2023-04-06T13:28:02;22.30;38.70
7970;DHT22;4030;52.362;9.206;2023-04-06T13:30:28;22.40;38.70
7970;DHT22;4030;52.362;9.206;2023-04-06T13:35:20;22.60;37.90
7970;DHT22;4030;52.362;9.206;2023-04-06T13:37:45;22.60;37.30
7970;DHT22;4030;52.362;9.206;2023-04-06T13:40:11;22.70;36.80
7970;DHT22;4030;52.362;9.206;2023-04-06T13:42:37;22.90;36.90
7970;DHT22;4030;52.362;9.206;2023-04-06T13:45:05;22.90;36.60
7970;DHT22;4030;52.362;9.206;2023-04-06T13:47:31;23.00;31.60
7970;DHT22;4030;52.362;9.206;2023-04-06T13:49:57;23.00;31.10
7970;DHT22;4030;52.362;9.206;2023-04-06T13:59:41;23.50;33.90
7970;DHT22;4030;52.362;9.206;2023-04-06T14:02:09;23.70;34.40
7970;DHT22;4030;52.362;9.206;2023-04-06T14:04:35;23.90;34.50
7970;DHT22;4030;52.362;9.206;2023-04-06T14:09:28;24.30;34.30
7970;DHT22;4030;52.362;9.206;2023-04-06T14:11:54;24.50;34.00
7970;DHT22;4030;52.362;9.206;2023-04-06T14:14:20;24.70;33.80
7970;DHT22;4030;52.362;9.206;2023-04-06T14:16:46;25.00;33.50
7970;DHT22;4030;52.362;9.206;2023-04-06T14:19:14;25.40;32.80
7970;DHT22;4030;52.362;9.206;2023-04-06T14:21:45;25.60;32.60
7970;DHT22;4030;52.362;9.206;2023-04-06T14:24:11;25.60;32.40
7970;DHT22;4030;52.362;9.206;2023-04-06T14:26:37;25.70;32.30
7970;DHT22;4030;52.362;9.206;2023-04-06T14:29:04;25.80;31.90
7970;DHT22;4030;52.362;9.206;2023-04-06T14:31:31;25.90;31.80
7970;DHT22;4030;52.362;9.206;2023-04-06T14:33:58;25.90;31.70
7970;DHT22;4030;52.362;9.206;2023-04-06T14:36:24;26.00;32.30
7970;DHT22;4030;52.362;9.206;2023-04-06T14:38:51;26.10;31.90
7970;DHT22;4030;52.362;9.206;2023-04-06T14:41:19;26.30;31.70
7970;DHT22;4030;52.362;9.206;2023-04-06T14:43:46;26.70;30.50
7970;DHT22;4030;52.362;9.206;2023-04-06T14:46:12;27.70;29.60
7970;DHT22;4030;52.362;9.206;2023-04-06T14:48:38;29.00;28.70
7970;DHT22;4030;52.362;9.206;2023-04-06T14:51:04;30.20;27.70
7970;DHT22;4030;52.362;9.206;2023-04-06T14:53:30;30.90;27.00
7970;DHT22;4030;52.362;9.206;2023-04-06T14:55:56;31.20;26.10
7970;DHT22;4030;52.362;9.206;2023-04-06T14:58:22;31.80;25.60
7970;DHT22;4030;52.362;9.206;2023-04-06T15:00:49;32.00;25.60
7970;DHT22;4030;52.362;9.206;2023-04-06T15:03:15;32.50;25.10
7970;DHT22;4030;52.362;9.206;2023-04-06T15:05:41;33.10;24.00
7970;DHT22;4030;52.362;9.206;2023-04-06T15:08:07;33.50;23.50
7970;DHT22;4030;52.362;9.206;2023-04-06T15:13:02;33.10;24.30
7970;DHT22;4030;52.362;9.206;2023-04-06T15:15:28;33.20;24.20
7970;DHT22;4030;52.362;9.206;2023-04-06T15:20:20;32.90;24.50
7970;DHT22;4030;52.362;9.206;2023-04-06T15:22:45;32.40;24.60
7970;DHT22;4030;52.362;9.206;2023-04-06T15:25:11;31.80;25.20
7970;DHT22;4030;52.362;9.206;2023-04-06T15:27:37;31.20;25.50
7970;DHT22;4030;52.362;9.206;2023-04-06T15:30:03;30.80;26.00
7970;DHT22;4030;52.362;9.206;2023-04-06T15:32:29;30.70;26.50
7970;DHT22;4030;52.362;9.206;2023-04-06T15:34:57;30.20;26.40
7970;DHT22;4030;52.362;9.206;2023-04-06T15:37:25;30.20;26.80
7970;DHT22;4030;52.362;9.206;2023-04-06T15:39:50;30.90;25.80
7970;DHT22;4030;52.362;9.206;2023-04-06T15:42:16;31.20;25.40
7970;DHT22;4030;52.362;9.206;2023-04-06T15:44:42;30.90;25.50
7970;DHT22;4030;52.362;9.206;2023-04-06T15:47:07;30.40;25.90
7970;DHT22;4030;52.362;9.206;2023-04-06T15:49:33;29.60;25.90
7970;DHT22;4030;52.362;9.206;2023-04-06T15:51:59;28.90;26.50
7970;DHT22;4030;52.362;9.206;2023-04-06T15:54:25;28.20;26.60
7970;DHT22;4030;52.362;9.206;2023-04-06T15:56:50;27.60;27.10
7970;DHT22;4030;52.362;9.206;2023-04-06T15:59:16;27.00;27.40
7970;DHT22;4030;52.362;9.206;2023-04-06T16:01:42;26.60;27.60
7970;DHT22;4030;52.362;9.206;2023-04-06T16:04:08;26.20;28.00
7970;DHT22;4030;52.362;9.206;2023-04-06T16:06:35;26.00;28.00
7970;DHT22;4030;52.362;9.206;2023-04-06T16:09:01;25.90;27.80
7970;DHT22;4030;52.362;9.206;2023-04-06T16:11:27;25.80;27.90
7970;DHT22;4030;52.362;9.206;2023-04-06T16:13:53;25.60;27.90
7970;DHT22;4030;52.362;9.206;2023-04-06T16:16:19;25.30;28.10
7970;DHT22;4030;52.362;9.206;2023-04-06T16:18:45;25.00;28.40
7970;DHT22;4030;52.362;9.206;2023-04-06T16:21:15;24.80;29.00
7970;DHT22;4030;52.362;9.206;2023-04-06T16:23:45;24.60;29.10
7970;DHT22;4030;52.362;9.206;2023-04-06T16:26:15;24.40;28.90
7970;DHT22;4030;52.362;9.206;2023-04-06T16:28:46;24.30;29.40
7970;DHT22;4030;52.362;9.206;2023-04-06T16:31:19;24.20;29.60
7970;DHT22;4030;52.362;9.206;2023-04-06T16:33:47;24.10;29.70
7970;DHT22;4030;52.362;9.206;2023-04-06T16:36:14;23.90;29.80
7970;DHT22;4030;52.362;9.206;2023-04-06T16:38:46;23.70;29.90
7970;DHT22;4030;52.362;9.206;2023-04-06T16:43:39;23.20;30.20
7970;DHT22;4030;52.362;9.206;2023-04-06T16:46:04;23.00;30.50
7970;DHT22;4030;52.362;9.206;2023-04-06T16:48:31;22.90;30.60
7970;DHT22;4030;52.362;9.206;2023-04-06T16:50:56;22.70;31.10
7970;DHT22;4030;52.362;9.206;2023-04-06T16:53:22;22.50;31.10
7970;DHT22;4030;52.362;9.206;2023-04-06T16:55:47;22.20;31.20
7970;DHT22;4030;52.362;9.206;2023-04-06T16:58:13;22.20;31.60
7970;DHT22;4030;52.362;9.206;2023-04-06T17:00:39;22.00;31.80
7970;DHT22;4030;52.362;9.206;2023-04-06T17:03:05;21.80;31.90
7970;DHT22;4030;52.362;9.206;2023-04-06T17:05:30;21.70;32.10
7970;DHT22;4030;52.362;9.206;2023-04-06T17:07:59;21.50;32.30
7970;DHT22;4030;52.362;9.206;2023-04-06T17:12:50;21.30;32.90
7970;DHT22;4030;52.362;9.206;2023-04-06T17:20:09;20.90;33.40
7970;DHT22;4030;52.362;9.206;2023-04-06T17:27:27;20.50;34.00
7970;DHT22;4030;52.362;9.206;2023-04-06T17:29:53;20.40;34.30
7970;DHT22;4030;52.362;9.206;2023-04-06T17:34:46;20.20;34.40
7970;DHT22;4030;52.362;9.206;2023-04-06T17:39:38;19.90;34.70
7970;DHT22;4030;52.362;9.206;2023-04-06T17:42:04;19.90;34.90
7970;DHT22;4030;52.362;9.206;2023-04-06T17:44:30;19.80;34.90
7970;DHT22;4030;52.362;9.206;2023-04-06T17:46:56;19.70;35.10
7970;DHT22;4030;52.362;9.206;2023-04-06T17:49:21;19.60;35.10
7970;DHT22;4030;52.362;9.206;2023-04-06T17:56:40;19.20;35.30
7970;DHT22;4030;52.362;9.206;2023-04-06T18:01:37;19.00;35.40
7970;DHT22;4030;52.362;9.206;2023-04-06T18:04:03;19.00;35.70
7970;DHT22;4030;52.362;9.206;2023-04-06T18:11:23;18.60;35.70
7970;DHT22;4030;52.362;9.206;2023-04-06T18:26:03;18.20;36.00
7970;DHT22;4030;52.362;9.206;2023-04-06T18:28:29;18.10;36.00
7970;DHT22;4030;52.362;9.206;2023-04-06T18:30:57;18.00;36.10
7970;DHT22;4030;52.362;9.206;2023-04-06T18:33:24;18.00;36.20
7970;DHT22;4030;52.362;9.206;2023-04-06T18:38:19;17.80;36.30
7970;DHT22;4030;52.362;9.206;2023-04-06T18:40:45;17.80;36.40
7970;DHT22;4030;52.362;9.206;2023-04-06T18:48:03;17.60;36.50
7970;DHT22;4030;52.362;9.206;2023-04-06T18:52:55;17.50;36.60
7970;DHT22;4030;52.362;9.206;2023-04-06T18:57:47;17.40;36.60
7970;DHT22;4030;52.362;9.206;2023-04-06T19:00:14;17.30;36.70
7970;DHT22;4030;52.362;9.206;2023-04-06T19:02:41;17.20;36.70
7970;DHT22;4030;52.362;9.206;2023-04-06T19:07:37;17.20;36.90
7970;DHT22;4030;52.362;9.206;2023-04-06T19:10:04;17.10;36.90
7970;DHT22;4030;52.362;9.206;2023-04-06T19:12:34;17.10;37.00
7970;DHT22;4030;52.362;9.206;2023-04-06T19:15:03;17.00;37.10
7970;DHT22;4030;52.362;9.206;2023-04-06T19:19:55;16.90;37.10
7970;DHT22;4030;52.362;9.206;2023-04-06T19:22:22;16.90;37.10
7970;DHT22;4030;52.362;9.206;2023-04-06T19:24:48;16.90;37.30
7970;DHT22;4030;52.362;9.206;2023-04-06T19:29:40;16.80;37.40
7970;DHT22;4030;52.362;9.206;2023-04-06T19:32:07;16.70;37.40
7970;DHT22;4030;52.362;9.206;2023-04-06T19:34:35;16.70;37.50
7970;DHT22;4030;52.362;9.206;2023-04-06T19:39:28;16.60;37.50
7970;DHT22;4030;52.362;9.206;2023-04-06T19:41:55;16.50;37.50
7970;DHT22;4030;52.362;9.206;2023-04-06T19:51:39;16.30;37.70
7970;DHT22;4030;52.362;9.206;2023-04-06T19:54:05;16.30;37.70
7970;DHT22;4030;52.362;9.206;2023-04-06T19:56:31;16.30;37.70
7970;DHT22;4030;52.362;9.206;2023-04-06T19:58:57;16.20;37.70
7970;DHT22;4030;52.362;9.206;2023-04-06T20:01:23;16.30;37.80
7970;DHT22;4030;52.362;9.206;2023-04-06T20:03:49;16.10;37.70
7970;DHT22;4030;52.362;9.206;2023-04-06T20:06:15;16.10;37.70
7970;DHT22;4030;52.362;9.206;2023-04-06T20:11:08;16.10;37.70
7970;DHT22;4030;52.362;9.206;2023-04-06T20:13:34;16.00;37.70
7970;DHT22;4030;52.362;9.206;2023-04-06T20:16:01;16.00;37.60
7970;DHT22;4030;52.362;9.206;2023-04-06T20:25:46;15.90;37.70
7970;DHT22;4030;52.362;9.206;2023-04-06T20:30:38;15.90;37.80
7970;DHT22;4030;52.362;9.206;2023-04-06T20:33:04;15.80;37.90
7970;DHT22;4030;52.362;9.206;2023-04-06T20:35:30;15.80;38.00
7970;DHT22;4030;52.362;9.206;2023-04-06T20:37:56;15.70;38.00
7970;DHT22;4030;52.362;9.206;2023-04-06T20:40:22;15.70;38.10
7970;DHT22;4030;52.362;9.206;2023-04-06T20:42:48;15.60;38.20
7970;DHT22;4030;52.362;9.206;2023-04-06T20:45:14;15.70;38.40
7970;DHT22;4030;52.362;9.206;2023-04-06T20:50:06;15.50;38.40
7970;DHT22;4030;52.362;9.206;2023-04-06T20:52:32;15.50;38.60
7970;DHT22;4030;52.362;9.206;2023-04-06T20:54:59;15.30;38.60
7970;DHT22;4030;52.362;9.206;2023-04-06T20:57:25;15.40;38.80
7970;DHT22;4030;52.362;9.206;2023-04-06T20:59:51;15.30;38.90
7970;DHT22;4030;52.362;9.206;2023-04-06T21:04:43;15.20;39.10
7970;DHT22;4030;52.362;9.206;2023-04-06T21:07:09;15.10;39.20
7970;DHT22;4030;52.362;9.206;2023-04-06T21:09:37;15.10;39.30
7970;DHT22;4030;52.362;9.206;2023-04-06T21:12:04;15.10;39.40
7970;DHT22;4030;52.362;9.206;2023-04-06T21:14:31;15.00;39.50
7970;DHT22;4030;52.362;9.206;2023-04-06T21:16:57;14.90;39.50
7970;DHT22;4030;52.362;9.206;2023-04-06T21:19:24;14.90;39.60
7970;DHT22;4030;52.362;9.206;2023-04-06T21:21:52;14.80;39.70
7970;DHT22;4030;52.362;9.206;2023-04-06T21:26:45;14.80;40.00
7970;DHT22;4030;52.362;9.206;2023-04-06T21:29:10;14.70;40.00
7970;DHT22;4030;52.362;9.206;2023-04-06T21:31:36;14.70;40.00
7970;DHT22;4030;52.362;9.206;2023-04-06T21:34:12;14.60;39.90
7970;DHT22;4030;52.362;9.206;2023-04-06T21:36:39;14.60;40.00
7970;DHT22;4030;52.362;9.206;2023-04-06T21:39:06;14.60;40.00
7970;DHT22;4030;52.362;9.206;2023-04-06T21:41:32;14.60;40.10
7970;DHT22;4030;52.362;9.206;2023-04-06T21:43:59;14.50;40.00
7970;DHT22;4030;52.362;9.206;2023-04-06T21:46:25;14.50;40.00
7970;DHT22;4030;52.362;9.206;2023-04-06T21:48:50;14.50;40.00
7970;DHT22;4030;52.362;9.206;2023-04-06T21:51:20;14.50;40.10
7970;DHT22;4030;52.362;9.206;2023-04-06T21:53:47;14.30;40.00
7970;DHT22;4030;52.362;9.206;2023-04-06T21:56:16;14.40;40.00
7970;DHT22;4030;52.362;9.206;2023-04-06T22:01:10;14.30;40.00
7970;DHT22;4030;52.362;9.206;2023-04-06T22:03:37;14.30;40.10
7970;DHT22;4030;52.362;9.206;2023-04-06T22:06:04;14.30;40.20
7970;DHT22;4030;52.362;9.206;2023-04-06T22:08:30;14.30;40.30
7970;DHT22;4030;52.362;9.206;2023-04-06T22:10:57;14.20;40.30
7970;DHT22;4030;52.362;9.206;2023-04-06T22:13:27;14.30;40.50
7970;DHT22;4030;52.362;9.206;2023-04-06T22:15:53;14.10;40.60
7970;DHT22;4030;52.362;9.206;2023-04-06T22:18:19;14.10;40.90
7970;DHT22;4030;52.362;9.206;2023-04-06T22:20:45;13.90;40.80
7970;DHT22;4030;52.362;9.206;2023-04-06T22:23:11;14.00;41.10
7970;DHT22;4030;52.362;9.206;2023-04-06T22:25:37;14.00;41.10
7970;DHT22;4030;52.362;9.206;2023-04-06T22:30:31;13.80;41.20
7970;DHT22;4030;52.362;9.206;2023-04-06T22:32:57;13.90;41.40
7970;DHT22;4030;52.362;9.206;2023-04-06T22:35:23;13.80;41.40
7970;DHT22;4030;52.362;9.206;2023-04-06T22:40:15;13.80;41.60
7970;DHT22;4030;52.362;9.206;2023-04-06T22:47:34;13.60;41.60
7970;DHT22;4030;52.362;9.206;2023-04-06T22:50:00;13.60;41.70
7970;DHT22;4030;52.362;9.206;2023-04-06T22:54:52;13.60;41.80
7970;DHT22;4030;52.362;9.206;2023-04-06T22:57:18;13.60;42.00
7970;DHT22;4030;52.362;9.206;2023-04-06T23:14:20;13.40;42.50
7970;DHT22;4030;52.362;9.206;2023-04-06T23:19:12;13.30;42.60
7970;DHT22;4030;52.362;9.206;2023-04-06T23:26:30;13.20;42.60
